Station Historical Data
Daily Summary for August 17, 2017 Units:  English    Metric   Both
« Previous Day
Next Day »
Daily Weekly Monthly Yearly Custom
  High: Low: Average:
Temperature: 83.0 °F 59.5 °F 71.4 °F
Dew Point: 70.8 °F 55.9 °F 63.3 °F
Humidity: 91% 52% 77%
Wind Speed: 9.0mph 0.0mph 1.5mph
Wind Gust: 11.0mph - -
Wind- - ESE
Pressure: 30.05 in 29.73 in -
Precipitation: 0.00 in    
Historical Graphs
 
 
Tabular Data for August 17, 2017
Time Temperature Dew Point Pressure Wind Wind Speed Wind Gust Humidity Rainfall Rate (Hourly)
00:04 64.5 °F 59.2 °F 30.04 in East 3.0 mph 5.0 mph 83% 0.00 in
00:09 64.5 °F 59.2 °F 30.05 in East 2.0 mph 3.0 mph 83% 0.00 in
00:14 64.4 °F 59.1 °F 30.04 in Calm   2.0 mph 83% 0.00 in
00:19 64.3 °F 59.0 °F 30.05 in Calm   1.0 mph 83% 0.00 in
00:24 64.2 °F 59.3 °F 30.04 in Calm   3.0 mph 84% 0.00 in
00:29 64.1 °F 59.2 °F 30.04 in Calm     84% 0.00 in
00:34 64.0 °F 59.1 °F 30.04 in Calm   1.0 mph 84% 0.00 in
00:39 63.8 °F 58.9 °F 30.04 in Calm   5.0 mph 84% 0.00 in
00:44 63.8 °F 58.9 °F 30.04 in Calm   5.0 mph 84% 0.00 in
00:49 63.7 °F 58.8 °F 30.05 in Calm   3.0 mph 84% 0.00 in
00:54 63.6 °F 58.7 °F 30.05 in Calm     84% 0.00 in
00:59 63.5 °F 58.6 °F 30.05 in Calm   2.0 mph 84% 0.00 in
01:04 63.3 °F 58.4 °F 30.05 in Calm   2.0 mph 84% 0.00 in
01:09 63.2 °F 58.3 °F 30.04 in Calm   2.0 mph 84% 0.00 in
01:14 63.1 °F 58.5 °F 30.04 in Calm   3.0 mph 85% 0.00 in
01:19 63.1 °F 58.5 °F 30.04 in Calm   5.0 mph 85% 0.00 in
01:24 62.9 °F 58.0 °F 30.04 in Calm     84% 0.00 in
01:29 62.8 °F 58.2 °F 30.04 in Calm     85% 0.00 in
01:34 62.7 °F 57.8 °F 30.04 in Calm     84% 0.00 in
01:39 62.6 °F 58.0 °F 30.05 in Calm     85% 0.00 in
01:44 62.5 °F 57.9 °F 30.04 in Calm     85% 0.00 in
01:49 62.4 °F 57.8 °F 30.04 in Calm     85% 0.00 in
01:54 62.2 °F 57.6 °F 30.04 in Calm     85% 0.00 in
01:59 62.0 °F 57.4 °F 30.04 in Calm     85% 0.00 in
02:04 61.9 °F 57.3 °F 30.03 in Calm     85% 0.00 in
02:09 61.8 °F 57.2 °F 30.03 in Calm   3.0 mph 85% 0.00 in
02:14 61.7 °F 57.5 °F 30.03 in Calm   2.0 mph 86% 0.00 in
02:19 61.6 °F 57.4 °F 30.02 in Calm     86% 0.00 in
02:24 61.5 °F 57.3 °F 30.02 in Calm     86% 0.00 in
02:29 61.4 °F 57.2 °F 30.02 in Calm     86% 0.00 in
02:34 61.3 °F 57.1 °F 30.03 in Calm     86% 0.00 in
02:39 61.1 °F 56.9 °F 30.02 in Calm     86% 0.00 in
02:44 61.1 °F 56.9 °F 30.02 in Calm     86% 0.00 in
02:49 60.9 °F 56.7 °F 30.02 in Calm     86% 0.00 in
02:54 60.9 °F 56.7 °F 30.02 in Calm     86% 0.00 in
02:59 60.7 °F 56.5 °F 30.02 in Calm     86% 0.00 in
03:04 60.6 °F 56.4 °F 30.02 in Calm     86% 0.00 in
03:09 60.6 °F 56.4 °F 30.02 in Calm     86% 0.00 in
03:14 60.6 °F 56.4 °F 30.02 in Calm     86% 0.00 in
03:19 60.6 °F 56.4 °F 30.01 in Calm     86% 0.00 in
03:24 60.5 °F 56.3 °F 30.01 in Calm     86% 0.00 in
03:29 60.5 °F 56.6 °F 30.02 in Calm     87% 0.00 in
03:34 60.4 °F 56.5 °F 30.02 in Calm     87% 0.00 in
03:39 60.4 °F 56.5 °F 30.01 in Calm     87% 0.00 in
03:44 60.4 °F 56.5 °F 30.01 in Calm     87% 0.00 in
03:49 60.4 °F 56.5 °F 30.01 in Calm     87% 0.00 in
03:54 60.3 °F 56.4 °F 30.01 in Calm     87% 0.00 in
03:59 60.2 °F 56.3 °F 30.01 in Calm     87% 0.00 in
04:04 60.2 °F 56.3 °F 30.01 in Calm     87% 0.00 in
04:09 60.0 °F 56.1 °F 30.01 in Calm     87% 0.00 in
04:14 60.0 °F 56.1 °F 30.01 in Calm     87% 0.00 in
04:19 59.8 °F 55.9 °F 30.01 in Calm     87% 0.00 in
04:24 59.8 °F 56.2 °F 30.00 in Calm     88% 0.00 in
04:29 59.9 °F 56.3 °F 30.00 in Calm     88% 0.00 in
04:34 59.9 °F 56.3 °F 30.00 in Calm     88% 0.00 in
04:39 59.9 °F 56.3 °F 30.00 in Calm     88% 0.00 in
04:44 59.9 °F 56.3 °F 30.00 in Calm   2.0 mph 88% 0.00 in
04:49 60.0 °F 56.4 °F 30.00 in Calm     88% 0.00 in
04:54 60.0 °F 56.4 °F 30.00 in Calm     88% 0.00 in
04:59 60.0 °F 56.4 °F 30.00 in Calm     88% 0.00 in
05:04 60.0 °F 56.4 °F 30.00 in Calm     88% 0.00 in
05:09 59.9 °F 56.3 °F 30.00 in Calm     88% 0.00 in
05:14 59.9 °F 56.3 °F 30.00 in Calm     88% 0.00 in
05:19 59.8 °F 56.2 °F 30.00 in Calm     88% 0.00 in
05:24 59.8 °F 56.2 °F 30.00 in Calm     88% 0.00 in
05:29 59.8 °F 56.2 °F 30.00 in Calm     88% 0.00 in
05:34 59.7 °F 56.1 °F 30.00 in Calm     88% 0.00 in
05:39 59.8 °F 56.6 °F 30.00 in Calm     89% 0.00 in
05:44 59.7 °F 56.5 °F 30.00 in Calm     89% 0.00 in
05:49 59.6 °F 56.4 °F 30.00 in Calm     89% 0.00 in
05:54 59.6 °F 56.4 °F 30.00 in Calm     89% 0.00 in
05:59 59.6 °F 56.4 °F 30.00 in Calm     89% 0.00 in
06:04 59.6 °F 56.4 °F 30.00 in Calm     89% 0.00 in
06:09 59.6 °F 56.4 °F 30.00 in Calm     89% 0.00 in
06:14 59.6 °F 56.4 °F 30.01 in Calm     89% 0.00 in
06:19 59.5 °F 56.3 °F 30.01 in Calm     89% 0.00 in
06:24 59.5 °F 56.3 °F 30.00 in Calm     89% 0.00 in
06:29 59.5 °F 56.6 °F 30.01 in Calm     90% 0.00 in
06:34 59.7 °F 56.8 °F 30.01 in Calm     90% 0.00 in
06:39 59.7 °F 56.8 °F 30.00 in Calm     90% 0.00 in
06:44 59.8 °F 56.9 °F 30.00 in Calm     90% 0.00 in
06:49 60.0 °F 57.1 °F 30.00 in Calm     90% 0.00 in
06:54 60.0 °F 56.7 °F 30.00 in Calm     89% 0.00 in
06:59 60.2 °F 57.3 °F 30.01 in Calm     90% 0.00 in
07:04 60.4 °F 57.5 °F 30.00 in Calm     90% 0.00 in
07:09 60.6 °F 57.3 °F 30.00 in Calm     89% 0.00 in
07:14 60.8 °F 57.5 °F 30.00 in Calm   3.0 mph 89% 0.00 in
07:19 61.2 °F 57.9 °F 30.01 in Calm   3.0 mph 89% 0.00 in
07:24 61.4 °F 57.8 °F 30.00 in Calm   2.0 mph 88% 0.00 in
07:29 61.9 °F 58.3 °F 30.00 in Calm   3.0 mph 88% 0.00 in
07:34 62.3 °F 58.4 °F 30.00 in Calm     87% 0.00 in
07:39 62.9 °F 58.6 °F 30.00 in SE 1.0 mph 5.0 mph 86% 0.00 in
07:44 63.5 °F 58.9 °F 30.00 in Calm   4.0 mph 85% 0.00 in
07:49 64.1 °F 59.2 °F 30.00 in ENE 1.0 mph 5.0 mph 84% 0.00 in
07:54 64.5 °F 59.2 °F 30.01 in SE 1.0 mph 3.0 mph 83% 0.00 in
07:59 64.9 °F 59.3 °F 30.01 in East 2.0 mph 6.0 mph 82% 0.00 in
08:04 65.1 °F 59.5 °F 30.01 in SE 1.0 mph 6.0 mph 82% 0.00 in
08:09 65.4 °F 59.4 °F 30.00 in SE 2.0 mph 6.0 mph 81% 0.00 in
08:14 65.7 °F 59.7 °F 30.00 in SE 2.0 mph 6.0 mph 81% 0.00 in
08:19 65.8 °F 59.8 °F 30.00 in SE 2.0 mph 5.0 mph 81% 0.00 in
08:24 66.3 °F 60.3 °F 30.00 in ESE 2.0 mph 5.0 mph 81% 0.00 in
08:29 67.0 °F 60.6 °F 30.00 in SE 2.0 mph 5.0 mph 80% 0.00 in
08:34 67.5 °F 60.8 °F 30.00 in SE 2.0 mph 5.0 mph 79% 0.00 in
08:39 67.7 °F 60.6 °F 30.00 in SE 2.0 mph 5.0 mph 78% 0.00 in
08:44 68.1 °F 61.0 °F 30.00 in SE 1.0 mph 5.0 mph 78% 0.00 in
08:49 68.8 °F 61.3 °F 30.00 in SE 2.0 mph 4.0 mph 77% 0.00 in
08:54 68.9 °F 61.4 °F 29.99 in SE 3.0 mph 5.0 mph 77% 0.00 in
08:59 68.8 °F 60.9 °F 29.99 in SE 3.0 mph 5.0 mph 76% 0.00 in
09:04 69.8 °F 62.3 °F 29.99 in SE 2.0 mph 5.0 mph 77% 0.00 in
09:09 70.2 °F 61.5 °F 29.99 in SE 2.0 mph 5.0 mph 74% 0.00 in
09:14 70.0 °F 61.7 °F 29.99 in SE 2.0 mph 5.0 mph 75% 0.00 in
09:19 70.7 °F 62.4 °F 29.99 in SE 1.0 mph 3.0 mph 75% 0.00 in
09:24 71.5 °F 63.2 °F 29.99 in ESE 1.0 mph 4.0 mph 75% 0.00 in
09:29 71.8 °F 62.3 °F 29.98 in NE 2.0 mph 6.0 mph 72% 0.00 in
09:34 71.6 °F 62.1 °F 29.98 in ENE 3.0 mph 4.0 mph 72% 0.00 in
09:39 72.3 °F 63.2 °F 29.98 in SE 2.0 mph 5.0 mph 73% 0.00 in
09:44 73.3 °F 63.7 °F 29.98 in ESE 2.0 mph 5.0 mph 72% 0.00 in
09:49 73.4 °F 63.0 °F 29.98 in SE 2.0 mph 4.0 mph 70% 0.00 in
09:54 74.3 °F 63.5 °F 29.98 in SE 1.0 mph 3.0 mph 69% 0.00 in
09:59 74.2 °F 63.4 °F 29.98 in East 2.0 mph 5.0 mph 69% 0.00 in
10:04 74.3 °F 63.1 °F 29.98 in SE 1.0 mph 4.0 mph 68% 0.00 in
10:09 74.4 °F 63.6 °F 29.98 in ENE 1.0 mph 3.0 mph 69% 0.00 in
10:14 75.1 °F 63.4 °F 29.98 in SE 2.0 mph 3.0 mph 67% 0.00 in
10:19 75.5 °F 62.9 °F 29.98 in SE 2.0 mph 4.0 mph 65% 0.00 in
10:24 75.9 °F 63.3 °F 29.97 in ESE 2.0 mph 4.0 mph 65% 0.00 in
10:29 76.2 °F 63.1 °F 29.97 in SSE 4.0 mph 6.0 mph 64% 0.00 in
10:34 76.9 °F 63.8 °F 29.97 in SE 1.0 mph 4.0 mph 64% 0.00 in
10:39 76.8 °F 63.2 °F 29.97 in ESE 2.0 mph 7.0 mph 63% 0.00 in
10:44 76.7 °F 63.2 °F 29.97 in East 2.0 mph 7.0 mph 63% 0.00 in
10:49 77.0 °F 63.9 °F 29.96 in ESE 3.0 mph 5.0 mph 64% 0.00 in
10:54 76.8 °F 63.7 °F 29.97 in SE 3.0 mph 7.0 mph 64% 0.00 in
10:59 77.0 °F 63.4 °F 29.97 in ESE 2.0 mph 6.0 mph 63% 0.00 in
11:04 77.0 °F 63.9 °F 29.96 in SSE 2.0 mph 3.0 mph 64% 0.00 in
11:09 77.5 °F 63.5 °F 29.96 in ESE 4.0 mph 4.0 mph 62% 0.00 in
11:14 77.8 °F 64.2 °F 29.96 in Calm   9.0 mph 63% 0.00 in
11:19 78.5 °F 63.9 °F 29.96 in ESE 2.0 mph 9.0 mph 61% 0.00 in
11:24 78.1 °F 64.0 °F 29.96 in SE 2.0 mph 5.0 mph 62% 0.00 in
11:29 78.9 °F 65.2 °F 29.95 in SE 2.0 mph 4.0 mph 63% 0.00 in
11:34 79.6 °F 64.5 °F 29.96 in SE 1.0 mph 7.0 mph 60% 0.00 in
11:39 79.2 °F 63.1 °F 29.95 in ESE 3.0 mph 5.0 mph 58% 0.00 in
11:44 78.8 °F 62.3 °F 29.94 in ESE 1.0 mph 6.0 mph 57% 0.00 in
11:49 78.3 °F 62.3 °F 29.95 in SE 3.0 mph 6.0 mph 58% 0.00 in
11:54 78.5 °F 63.0 °F 29.95 in SSE 2.0 mph 5.0 mph 59% 0.00 in
11:59 78.9 °F 64.3 °F 29.94 in SSE 1.0 mph 5.0 mph 61% 0.00 in
12:04 79.1 °F 62.1 °F 29.94 in SSE 2.0 mph 5.0 mph 56% 0.00 in
12:09 79.2 °F 63.1 °F 29.94 in Calm   3.0 mph 58% 0.00 in
12:14 79.3 °F 62.7 °F 29.94 in Calm     57% 0.00 in
12:19 79.2 °F 62.1 °F 29.93 in SE 5.0 mph 5.0 mph 56% 0.00 in
12:24 79.1 °F 63.1 °F 29.93 in ESE 2.0 mph 5.0 mph 58% 0.00 in
12:29 79.4 °F 62.8 °F 29.93 in East 2.0 mph 5.0 mph 57% 0.00 in
12:34 79.4 °F 62.8 °F 29.93 in East 2.0 mph 5.0 mph 57% 0.00 in
12:39 79.5 °F 62.4 °F 29.93 in Calm   4.0 mph 56% 0.00 in
12:44 80.3 °F 63.2 °F 29.92 in South 2.0 mph 5.0 mph 56% 0.00 in
12:49 81.1 °F 63.9 °F 29.92 in South 1.0 mph 5.0 mph 56% 0.00 in
12:54 81.4 °F 65.7 °F 29.92 in South 2.0 mph 5.0 mph 59% 0.00 in
12:59 82.4 °F 63.5 °F 29.92 in SE 1.0 mph 5.0 mph 53% 0.00 in
13:04 81.9 °F 63.1 °F 29.92 in SE 1.0 mph 6.0 mph 53% 0.00 in
13:09 80.9 °F 62.7 °F 29.91 in ENE 3.0 mph 7.0 mph 54% 0.00 in
13:14 80.4 °F 62.8 °F 29.91 in SE 2.0 mph 5.0 mph 55% 0.00 in
13:19 80.7 °F 62.5 °F 29.91 in East 1.0 mph 6.0 mph 54% 0.00 in
13:24 80.7 °F 62.5 °F 29.91 in ESE 2.0 mph 6.0 mph 54% 0.00 in
13:29 80.7 °F 62.5 °F 29.91 in SE 1.0 mph 4.0 mph 54% 0.00 in
13:34 80.8 °F 62.6 °F 29.90 in SE 1.0 mph 5.0 mph 54% 0.00 in
13:39 80.9 °F 62.7 °F 29.90 in SE 2.0 mph 5.0 mph 54% 0.00 in
13:44 82.1 °F 64.3 °F 29.90 in ESE 3.0 mph 6.0 mph 55% 0.00 in
13:49 82.7 °F 64.4 °F 29.90 in SE 3.0 mph 6.0 mph 54% 0.00 in
13:54 82.5 °F 63.6 °F 29.89 in NE 5.0 mph 5.0 mph 53% 0.00 in
13:59 82.3 °F 62.9 °F 29.89 in East 2.0 mph 8.0 mph 52% 0.00 in
14:04 83.0 °F 64.6 °F 29.89 in East 4.0 mph 8.0 mph 54% 0.00 in
14:09 82.6 °F 64.3 °F 29.89 in East 4.0 mph 9.0 mph 54% 0.00 in
14:14 82.0 °F 64.2 °F 29.89 in ESE 1.0 mph 8.0 mph 55% 0.00 in
14:19 81.8 °F 64.1 °F 29.88 in NNE 5.0 mph 7.0 mph 55% 0.00 in
14:24 81.5 °F 64.8 °F 29.88 in NE 2.0 mph 7.0 mph 57% 0.00 in
14:29 81.5 °F 65.3 °F 29.88 in ENE 3.0 mph 7.0 mph 58% 0.00 in
14:34 81.4 °F 64.7 °F 29.88 in East 2.0 mph 7.0 mph 57% 0.00 in
14:39 81.2 °F 65.0 °F 29.88 in East 2.0 mph 8.0 mph 58% 0.00 in
14:44 81.0 °F 64.8 °F 29.88 in NE 6.0 mph 7.0 mph 58% 0.00 in
14:49 80.8 °F 64.6 °F 29.87 in ENE 5.0 mph 9.0 mph 58% 0.00 in
14:54 80.9 °F 63.7 °F 29.87 in NE 2.0 mph 7.0 mph 56% 0.00 in
14:59 81.0 °F 64.8 °F 29.86 in East 3.0 mph 7.0 mph 58% 0.00 in
15:04 81.1 °F 65.4 °F 29.86 in ESE 2.0 mph 7.0 mph 59% 0.00 in
15:09 80.9 °F 65.2 °F 29.86 in East 3.0 mph 8.0 mph 59% 0.00 in
15:14 81.1 °F 65.9 °F 29.85 in East 3.0 mph 8.0 mph 60% 0.00 in
15:19 80.9 °F 64.7 °F 29.85 in ENE 2.0 mph 8.0 mph 58% 0.00 in
15:29 80.6 °F 64.9 °F 29.85 in ENE 4.0 mph 9.0 mph 59% 0.00 in
15:34 80.5 °F 64.9 °F 29.85 in ENE 2.0 mph 8.0 mph 59% 0.00 in
15:39 80.1 °F 65.0 °F 29.85 in NE 4.0 mph 8.0 mph 60% 0.00 in
15:44 80.0 °F 65.3 °F 29.84 in ESE 3.0 mph 8.0 mph 61% 0.00 in
15:49 79.8 °F 65.6 °F 29.84 in ENE 3.0 mph 9.0 mph 62% 0.00 in
15:54 79.7 °F 66.0 °F 29.84 in ENE 7.0 mph 11.0 mph 63% 0.00 in
15:59 79.4 °F 66.2 °F 29.84 in ENE 5.0 mph 11.0 mph 64% 0.00 in
16:04 79.1 °F 66.8 °F 29.83 in ENE 4.0 mph 9.0 mph 66% 0.00 in
16:09 79.0 °F 66.7 °F 29.83 in ENE 4.0 mph 9.0 mph 66% 0.00 in
16:14 78.8 °F 66.9 °F 29.83 in NE 5.0 mph 8.0 mph 67% 0.00 in
16:19 78.7 °F 66.8 °F 29.83 in NE 4.0 mph 7.0 mph 67% 0.00 in
16:24 78.6 °F 67.2 °F 29.83 in ENE 3.0 mph 7.0 mph 68% 0.00 in
16:29 78.5 °F 67.5 °F 29.82 in ENE 4.0 mph 7.0 mph 69% 0.00 in
16:34 78.9 °F 67.9 °F 29.82 in ENE 3.0 mph 7.0 mph 69% 0.00 in
16:39 79.1 °F 68.1 °F 29.82 in ENE 3.0 mph 9.0 mph 69% 0.00 in
16:44 79.3 °F 68.2 °F 29.82 in ENE 4.0 mph 9.0 mph 69% 0.00 in
16:49 79.3 °F 68.2 °F 29.82 in ENE 7.0 mph 9.0 mph 69% 0.00 in
16:54 79.3 °F 68.2 °F 29.81 in ESE 8.0 mph 9.0 mph 69% 0.00 in
16:59 79.5 °F 68.9 °F 29.81 in East 9.0 mph 11.0 mph 70% 0.00 in
17:04 79.4 °F 68.3 °F 29.81 in ENE 5.0 mph 11.0 mph 69% 0.00 in
17:09 79.7 °F 69.0 °F 29.81 in ENE 4.0 mph 9.0 mph 70% 0.00 in
17:14 79.7 °F 68.6 °F 29.81 in NE 3.0 mph 9.0 mph 69% 0.00 in
17:19 79.7 °F 69.0 °F 29.81 in ESE 4.0 mph 7.0 mph 70% 0.00 in
17:24 79.8 °F 69.1 °F 29.81 in East 1.0 mph 8.0 mph 70% 0.00 in
17:29 80.0 °F 68.9 °F 29.80 in ESE 1.0 mph 8.0 mph 69% 0.00 in
17:34 80.0 °F 68.9 °F 29.80 in East 3.0 mph 8.0 mph 69% 0.00 in
17:39 80.0 °F 69.3 °F 29.80 in East 2.0 mph 7.0 mph 70% 0.00 in
17:44 80.0 °F 69.3 °F 29.80 in East 3.0 mph 10.0 mph 70% 0.00 in
17:49 79.8 °F 69.1 °F 29.80 in East 4.0 mph 10.0 mph 70% 0.00 in
17:54 79.6 °F 69.0 °F 29.79 in Calm   8.0 mph 70% 0.00 in
17:59 79.6 °F 69.4 °F 29.80 in ENE 4.0 mph 8.0 mph 71% 0.00 in
18:04 79.4 °F 68.8 °F 29.79 in East 3.0 mph 8.0 mph 70% 0.00 in
18:09 79.3 °F 69.1 °F 29.79 in East 3.0 mph 8.0 mph 71% 0.00 in
18:14 79.2 °F 69.0 °F 29.79 in East 5.0 mph 7.0 mph 71% 0.00 in
18:19 79.0 °F 68.8 °F 29.79 in East 2.0 mph 8.0 mph 71% 0.00 in
18:24 78.9 °F 69.1 °F 29.80 in East 2.0 mph 4.0 mph 72% 0.00 in
18:29 78.7 °F 69.7 °F 29.80 in Calm   5.0 mph 74% 0.00 in
18:34 78.4 °F 69.8 °F 29.80 in ENE 1.0 mph 3.0 mph 75% 0.00 in
18:39 77.7 °F 69.9 °F 29.79 in ENE 2.0 mph 4.0 mph 77% 0.01 in
18:44 77.2 °F 70.2 °F 29.80 in ENE 2.0 mph 5.0 mph 79% 0.01 in
18:49 76.9 °F 70.3 °F 29.80 in NE 2.0 mph 5.0 mph 80% 0.01 in
18:54 76.6 °F 70.3 °F 29.79 in NE 1.0 mph 7.0 mph 81% 0.02 in
18:59 76.2 °F 69.9 °F 29.79 in ENE 2.0 mph 5.0 mph 81% 0.02 in
19:04 75.9 °F 70.0 °F 29.79 in ENE 2.0 mph 6.0 mph 82% 0.02 in
19:09 75.7 °F 69.8 °F 29.79 in ENE 2.0 mph 6.0 mph 82% 0.02 in
19:14 75.5 °F 70.0 °F 29.79 in ENE 2.0 mph 6.0 mph 83% 0.02 in
19:19 75.4 °F 69.9 °F 29.78 in Calm   4.0 mph 83% 0.02 in
19:24 75.3 °F 69.8 °F 29.78 in Calm   2.0 mph 83% 0.03 in
19:29 75.1 °F 69.9 °F 29.78 in Calm     84% 0.03 in
19:34 75.0 °F 69.8 °F 29.78 in East 2.0 mph 6.0 mph 84% 0.04 in
19:39 74.8 °F 70.0 °F 29.78 in East 1.0 mph 6.0 mph 85% 0.03 in
19:44 74.7 °F 69.9 °F 29.78 in SE 2.0 mph 10.0 mph 85% 0.03 in
19:49 74.9 °F 70.1 °F 29.78 in SSE 2.0 mph 10.0 mph 85% 0.03 in
19:54 75.1 °F 70.3 °F 29.78 in Calm   3.0 mph 85% 0.02 in
19:59 75.3 °F 70.5 °F 29.78 in Calm     85% 0.02 in
20:04 75.4 °F 70.6 °F 29.77 in Calm   3.0 mph 85% 0.03 in
20:09 75.3 °F 70.8 °F 29.77 in Calm     86% 0.03 in
20:14 75.2 °F 70.7 °F 29.78 in Calm     86% 0.03 in
20:19 75.2 °F 70.7 °F 29.78 in Calm     86% 0.03 in
20:24 75.1 °F 70.6 °F 29.78 in Calm     86% 0.02 in
20:29 75.1 °F 70.6 °F 29.77 in Calm     86% 0.02 in
20:34 75.1 °F 70.6 °F 29.77 in Calm     86% 0.01 in
20:39 74.9 °F 70.8 °F 29.77 in Calm     87% 0.02 in
20:44 74.8 °F 70.7 °F 29.77 in Calm     87% 0.02 in
20:49 74.6 °F 70.5 °F 29.77 in Calm   3.0 mph 87% 0.02 in
20:54 74.5 °F 70.0 °F 29.77 in South 1.0 mph 4.0 mph 86% 0.02 in
20:59 74.5 °F 70.0 °F 29.77 in Calm   5.0 mph 86% 0.02 in
21:04 74.4 °F 69.9 °F 29.77 in Calm   3.0 mph 86% 0.02 in
21:09 74.3 °F 69.8 °F 29.77 in SSW 5.0 mph 7.0 mph 86% 0.02 in
21:14 74.2 °F 70.1 °F 29.77 in Calm   6.0 mph 87% 0.02 in
21:19 74.1 °F 70.0 °F 29.77 in South 1.0 mph 7.0 mph 87% 0.03 in
21:24 74.1 °F 70.0 °F 29.77 in South 1.0 mph 4.0 mph 87% 0.03 in
21:29 74.0 °F 69.9 °F 29.77 in South 1.0 mph 4.0 mph 87% 0.04 in
21:34 74.0 °F 69.9 °F 29.77 in Calm     87% 0.04 in
21:39 73.9 °F 70.1 °F 29.77 in Calm     88% 0.04 in
21:44 73.8 °F 70.0 °F 29.77 in Calm     88% 0.04 in
21:49 73.7 °F 69.9 °F 29.77 in Calm     88% 0.05 in
21:54 73.7 °F 69.9 °F 29.77 in Calm     88% 0.05 in
21:59 73.6 °F 70.2 °F 29.78 in SSW 2.0 mph 2.0 mph 89% 0.05 in
22:04 73.6 °F 70.2 °F 29.78 in WSW 2.0 mph 3.0 mph 89% 0.05 in
22:09 73.5 °F 70.1 °F 29.79 in SW 6.0 mph 10.0 mph 89% 0.07 in
22:14 73.5 °F 70.1 °F 29.78 in SW 4.0 mph 7.0 mph 89% 0.11 in
22:19 73.3 °F 69.9 °F 29.78 in WSW 3.0 mph 7.0 mph 89% 0.11 in
22:24 73.3 °F 70.2 °F 29.78 in SW 3.0 mph 7.0 mph 90% 0.11 in
22:29 73.2 °F 70.1 °F 29.78 in SSW 4.0 mph 9.0 mph 90% 0.11 in
22:34 73.1 °F 69.7 °F 29.77 in SSW 4.0 mph 10.0 mph 89% 0.13 in
22:39 72.9 °F 69.8 °F 29.76 in South 4.0 mph 11.0 mph 90% 0.12 in
22:44 72.9 °F 69.8 °F 29.76 in South 3.0 mph 11.0 mph 90% 0.13 in
22:54 72.8 °F 69.7 °F 29.75 in SSE 3.0 mph 7.0 mph 90% 0.16 in
22:59 72.8 °F 69.7 °F 29.76 in South 2.0 mph 4.0 mph 90% 0.16 in
23:04 72.7 °F 69.6 °F 29.75 in South 1.0 mph 5.0 mph 90% 0.15 in
23:09 72.7 °F 69.6 °F 29.75 in South 2.0 mph 5.0 mph 90% 0.13 in
23:24 72.7 °F 69.9 °F 29.75 in SSE 2.0 mph 7.0 mph 91% 0.08 in
23:29 72.7 °F 69.9 °F 29.75 in SE 2.0 mph 6.0 mph 91% 0.07 in
23:34 72.7 °F 69.9 °F 29.74 in SSE 2.0 mph 4.0 mph 91% 0.05 in
23:39 72.6 °F 69.8 °F 29.74 in SSE 2.0 mph 4.0 mph 91% 0.05 in
23:44 72.6 °F 69.8 °F 29.74 in South 2.0 mph 5.0 mph 91% 0.04 in
23:49 72.6 °F 69.8 °F 29.74 in SSW 5.0 mph 7.0 mph 91% 0.04 in
23:54 72.6 °F 69.8 °F 29.73 in South 2.0 mph 7.0 mph 91% 0.00 in
23:59 72.6 °F 69.8 °F 29.73 in SSW 1.0 mph 5.0 mph 91% 0.00 in
Buffalo, New York, USA
Compliments of Weather Underground - 2.5 mb